sensor_id;sensor_type;location;lat;lon;timestamp;P1;durP1;ratioP1;P2;durP2;ratioP2
23952;SDS011;12163;49.316;6.092;2022-10-31T00:01:00;21.65;;;5.93;;
23952;SDS011;12163;49.316;6.092;2022-10-31T00:03:27;24.60;;;6.28;;
23952;SDS011;12163;49.316;6.092;2022-10-31T00:05:54;15.85;;;5.38;;
23952;SDS011;12163;49.316;6.092;2022-10-31T00:08:20;18.38;;;5.55;;
23952;SDS011;12163;49.316;6.092;2022-10-31T00:10:47;15.98;;;6.03;;
23952;SDS011;12163;49.316;6.092;2022-10-31T00:13:13;16.70;;;5.70;;
23952;SDS011;12163;49.316;6.092;2022-10-31T00:15:40;11.85;;;5.60;;
23952;SDS011;12163;49.316;6.092;2022-10-31T00:18:07;14.48;;;5.50;;
23952;SDS011;12163;49.316;6.092;2022-10-31T00:20:35;16.70;;;5.22;;
23952;SDS011;12163;49.316;6.092;2022-10-31T00:23:03;19.60;;;5.43;;
23952;SDS011;12163;49.316;6.092;2022-10-31T00:25:33;17.08;;;5.32;;
23952;SDS011;12163;49.316;6.092;2022-10-31T00:28:02;12.03;;;5.40;;
23952;SDS011;12163;49.316;6.092;2022-10-31T00:30:30;18.67;;;5.65;;
23952;SDS011;12163;49.316;6.092;2022-10-31T00:32:56;14.15;;;4.90;;
23952;SDS011;12163;49.316;6.092;2022-10-31T00:35:23;16.20;;;5.15;;
23952;SDS011;12163;49.316;6.092;2022-10-31T00:37:51;15.50;;;4.72;;
23952;SDS011;12163;49.316;6.092;2022-10-31T00:40:18;15.13;;;5.40;;
23952;SDS011;12163;49.316;6.092;2022-10-31T00:42:45;17.80;;;5.55;;
23952;SDS011;12163;49.316;6.092;2022-10-31T00:45:11;22.02;;;5.93;;
23952;SDS011;12163;49.316;6.092;2022-10-31T00:47:38;13.23;;;5.55;;
23952;SDS011;12163;49.316;6.092;2022-10-31T00:50:05;14.15;;;5.25;;
23952;SDS011;12163;49.316;6.092;2022-10-31T00:52:32;17.25;;;5.72;;
23952;SDS011;12163;49.316;6.092;2022-10-31T00:54:59;19.45;;;5.60;;
23952;SDS011;12163;49.316;6.092;2022-10-31T00:57:25;15.57;;;6.05;;
23952;SDS011;12163;49.316;6.092;2022-10-31T00:59:52;14.25;;;5.20;;
23952;SDS011;12163;49.316;6.092;2022-10-31T01:02:18;23.40;;;5.90;;
23952;SDS011;12163;49.316;6.092;2022-10-31T01:04:45;12.75;;;5.53;;
23952;SDS011;12163;49.316;6.092;2022-10-31T01:07:12;19.70;;;6.40;;
23952;SDS011;12163;49.316;6.092;2022-10-31T01:09:40;16.70;;;6.03;;
23952;SDS011;12163;49.316;6.092;2022-10-31T01:12:07;19.75;;;5.60;;
23952;SDS011;12163;49.316;6.092;2022-10-31T01:14:34;16.30;;;5.50;;
23952;SDS011;12163;49.316;6.092;2022-10-31T01:17:00;14.38;;;5.28;;
23952;SDS011;12163;49.316;6.092;2022-10-31T01:19:27;17.20;;;5.70;;
23952;SDS011;12163;49.316;6.092;2022-10-31T01:21:55;16.63;;;5.38;;
23952;SDS011;12163;49.316;6.092;2022-10-31T01:24:21;18.85;;;5.30;;
23952;SDS011;12163;49.316;6.092;2022-10-31T01:26:48;18.10;;;5.68;;
23952;SDS011;12163;49.316;6.092;2022-10-31T01:29:15;13.65;;;5.05;;
23952;SDS011;12163;49.316;6.092;2022-10-31T01:31:41;14.32;;;5.07;;
23952;SDS011;12163;49.316;6.092;2022-10-31T01:34:09;21.40;;;6.45;;
23952;SDS011;12163;49.316;6.092;2022-10-31T01:36:40;16.65;;;5.30;;
23952;SDS011;12163;49.316;6.092;2022-10-31T01:39:09;21.38;;;5.97;;
23952;SDS011;12163;49.316;6.092;2022-10-31T01:41:38;15.60;;;5.97;;
23952;SDS011;12163;49.316;6.092;2022-10-31T01:46:46;18.83;;;6.03;;
23952;SDS011;12163;49.316;6.092;2022-10-31T01:49:34;21.30;;;6.07;;
23952;SDS011;12163;49.316;6.092;2022-10-31T01:52:04;23.77;;;6.40;;
23952;SDS011;12163;49.316;6.092;2022-10-31T01:54:40;22.40;;;6.72;;
23952;SDS011;12163;49.316;6.092;2022-10-31T01:57:12;23.98;;;6.82;;
23952;SDS011;12163;49.316;6.092;2022-10-31T01:59:42;17.52;;;5.60;;
23952;SDS011;12163;49.316;6.092;2022-10-31T02:02:13;17.30;;;5.43;;
23952;SDS011;12163;49.316;6.092;2022-10-31T02:04:43;24.90;;;5.57;;
23952;SDS011;12163;49.316;6.092;2022-10-31T02:07:12;19.52;;;6.07;;
23952;SDS011;12163;49.316;6.092;2022-10-31T02:09:42;13.70;;;5.10;;
23952;SDS011;12163;49.316;6.092;2022-10-31T02:12:11;15.10;;;5.75;;
23952;SDS011;12163;49.316;6.092;2022-10-31T02:14:38;17.95;;;5.55;;
23952;SDS011;12163;49.316;6.092;2022-10-31T02:17:06;15.20;;;5.43;;
23952;SDS011;12163;49.316;6.092;2022-10-31T02:22:33;14.48;;;5.72;;
23952;SDS011;12163;49.316;6.092;2022-10-31T02:44:38;20.67;;;7.03;;
23952;SDS011;12163;49.316;6.092;2022-10-31T02:47:11;16.52;;;6.75;;
23952;SDS011;12163;49.316;6.092;2022-10-31T02:49:42;17.60;;;6.90;;
23952;SDS011;12163;49.316;6.092;2022-10-31T02:52:21;23.30;;;5.90;;
23952;SDS011;12163;49.316;6.092;2022-10-31T02:54:50;14.50;;;5.75;;
23952;SDS011;12163;49.316;6.092;2022-10-31T02:57:20;17.48;;;6.10;;
23952;SDS011;12163;49.316;6.092;2022-10-31T02:59:53;17.30;;;6.57;;
23952;SDS011;12163;49.316;6.092;2022-10-31T03:05:12;13.65;;;6.57;;
23952;SDS011;12163;49.316;6.092;2022-10-31T03:10:24;14.15;;;6.30;;
23952;SDS011;12163;49.316;6.092;2022-10-31T03:15:36;19.08;;;6.80;;
23952;SDS011;12163;49.316;6.092;2022-10-31T03:23:21;18.48;;;6.93;;
23952;SDS011;12163;49.316;6.092;2022-10-31T03:25:49;19.90;;;6.90;;
23952;SDS011;12163;49.316;6.092;2022-10-31T03:28:18;17.85;;;6.82;;
23952;SDS011;12163;49.316;6.092;2022-10-31T03:30:51;18.42;;;7.15;;
23952;SDS011;12163;49.316;6.092;2022-10-31T03:33:21;20.30;;;7.20;;
23952;SDS011;12163;49.316;6.092;2022-10-31T03:35:53;23.75;;;7.40;;
23952;SDS011;12163;49.316;6.092;2022-10-31T03:38:24;22.23;;;7.43;;
23952;SDS011;12163;49.316;6.092;2022-10-31T03:40:52;22.98;;;8.15;;
23952;SDS011;12163;49.316;6.092;2022-10-31T03:43:24;18.90;;;7.97;;
23952;SDS011;12163;49.316;6.092;2022-10-31T03:45:55;21.70;;;7.55;;
23952;SDS011;12163;49.316;6.092;2022-10-31T03:48:22;25.23;;;7.78;;
23952;SDS011;12163;49.316;6.092;2022-10-31T03:53:39;18.08;;;6.93;;
23952;SDS011;12163;49.316;6.092;2022-10-31T03:56:16;21.92;;;7.18;;
23952;SDS011;12163;49.316;6.092;2022-10-31T04:01:29;16.42;;;6.68;;
23952;SDS011;12163;49.316;6.092;2022-10-31T04:03:58;14.70;;;6.20;;
23952;SDS011;12163;49.316;6.092;2022-10-31T04:06:26;20.52;;;7.07;;
23952;SDS011;12163;49.316;6.092;2022-10-31T04:08:55;17.48;;;6.72;;
23952;SDS011;12163;49.316;6.092;2022-10-31T04:11:28;20.30;;;7.57;;
23952;SDS011;12163;49.316;6.092;2022-10-31T04:13:57;20.83;;;7.55;;
23952;SDS011;12163;49.316;6.092;2022-10-31T04:16:27;30.13;;;7.65;;
23952;SDS011;12163;49.316;6.092;2022-10-31T04:18:55;20.77;;;8.10;;
23952;SDS011;12163;49.316;6.092;2022-10-31T04:21:29;23.38;;;7.32;;
23952;SDS011;12163;49.316;6.092;2022-10-31T04:23:56;13.35;;;7.00;;
23952;SDS011;12163;49.316;6.092;2022-10-31T04:26:23;20.83;;;7.70;;
23952;SDS011;12163;49.316;6.092;2022-10-31T04:28:50;21.13;;;9.02;;
23952;SDS011;12163;49.316;6.092;2022-10-31T04:31:16;22.58;;;8.15;;
23952;SDS011;12163;49.316;6.092;2022-10-31T04:33:43;27.08;;;9.30;;
23952;SDS011;12163;49.316;6.092;2022-10-31T04:36:10;23.70;;;8.65;;
23952;SDS011;12163;49.316;6.092;2022-10-31T04:38:36;25.88;;;10.10;;
23952;SDS011;12163;49.316;6.092;2022-10-31T04:41:03;24.23;;;9.35;;
23952;SDS011;12163;49.316;6.092;2022-10-31T04:43:30;22.85;;;9.32;;
23952;SDS011;12163;49.316;6.092;2022-10-31T04:45:56;28.52;;;10.68;;
23952;SDS011;12163;49.316;6.092;2022-10-31T04:48:23;28.60;;;10.20;;
23952;SDS011;12163;49.316;6.092;2022-10-31T04:50:49;27.00;;;9.50;;
23952;SDS011;12163;49.316;6.092;2022-10-31T04:53:16;23.45;;;10.77;;
23952;SDS011;12163;49.316;6.092;2022-10-31T04:55:42;21.48;;;10.18;;
23952;SDS011;12163;49.316;6.092;2022-10-31T04:58:09;25.65;;;10.55;;
23952;SDS011;12163;49.316;6.092;2022-10-31T05:00:35;25.00;;;9.90;;
23952;SDS011;12163;49.316;6.092;2022-10-31T05:03:02;28.70;;;10.15;;
23952;SDS011;12163;49.316;6.092;2022-10-31T05:05:29;23.88;;;9.38;;
23952;SDS011;12163;49.316;6.092;2022-10-31T05:07:57;25.25;;;10.02;;
23952;SDS011;12163;49.316;6.092;2022-10-31T05:10:25;28.17;;;10.10;;
23952;SDS011;12163;49.316;6.092;2022-10-31T05:12:54;26.65;;;9.23;;
23952;SDS011;12163;49.316;6.092;2022-10-31T05:15:26;29.48;;;11.10;;
23952;SDS011;12163;49.316;6.092;2022-10-31T05:17:53;29.70;;;9.90;;
23952;SDS011;12163;49.316;6.092;2022-10-31T05:20:21;26.85;;;11.20;;
23952;SDS011;12163;49.316;6.092;2022-10-31T05:22:51;23.85;;;10.77;;
23952;SDS011;12163;49.316;6.092;2022-10-31T05:25:19;21.80;;;10.27;;
23952;SDS011;12163;49.316;6.092;2022-10-31T05:27:48;20.73;;;9.63;;
23952;SDS011;12163;49.316;6.092;2022-10-31T05:30:17;24.35;;;10.13;;
23952;SDS011;12163;49.316;6.092;2022-10-31T05:32:46;24.88;;;10.68;;
23952;SDS011;12163;49.316;6.092;2022-10-31T05:35:15;24.98;;;11.07;;
23952;SDS011;12163;49.316;6.092;2022-10-31T05:37:43;24.17;;;9.70;;
23952;SDS011;12163;49.316;6.092;2022-10-31T05:40:10;27.55;;;11.88;;
23952;SDS011;12163;49.316;6.092;2022-10-31T05:42:39;21.73;;;10.63;;
23952;SDS011;12163;49.316;6.092;2022-10-31T05:45:07;28.00;;;10.27;;
23952;SDS011;12163;49.316;6.092;2022-10-31T05:47:39;20.55;;;10.88;;
23952;SDS011;12163;49.316;6.092;2022-10-31T05:50:06;22.10;;;10.35;;
23952;SDS011;12163;49.316;6.092;2022-10-31T05:52:33;12.95;;;7.22;;
23952;SDS011;12163;49.316;6.092;2022-10-31T05:55:00;20.27;;;7.82;;
23952;SDS011;12163;49.316;6.092;2022-10-31T05:57:27;20.90;;;7.90;;
23952;SDS011;12163;49.316;6.092;2022-10-31T05:59:55;22.60;;;7.78;;
23952;SDS011;12163;49.316;6.092;2022-10-31T06:02:22;13.35;;;7.10;;
23952;SDS011;12163;49.316;6.092;2022-10-31T06:04:48;17.30;;;7.78;;
23952;SDS011;12163;49.316;6.092;2022-10-31T06:07:15;21.85;;;7.07;;
23952;SDS011;12163;49.316;6.092;2022-10-31T06:09:41;16.80;;;7.35;;
23952;SDS011;12163;49.316;6.092;2022-10-31T06:12:08;16.80;;;7.28;;
23952;SDS011;12163;49.316;6.092;2022-10-31T06:14:35;22.55;;;7.57;;
23952;SDS011;12163;49.316;6.092;2022-10-31T06:17:01;17.70;;;7.72;;
23952;SDS011;12163;49.316;6.092;2022-10-31T06:19:28;22.50;;;7.70;;
23952;SDS011;12163;49.316;6.092;2022-10-31T06:21:54;16.33;;;6.63;;
23952;SDS011;12163;49.316;6.092;2022-10-31T06:24:21;21.67;;;7.10;;
23952;SDS011;12163;49.316;6.092;2022-10-31T06:26:47;17.48;;;6.93;;
23952;SDS011;12163;49.316;6.092;2022-10-31T06:29:14;17.70;;;7.45;;
23952;SDS011;12163;49.316;6.092;2022-10-31T06:31:40;17.38;;;7.45;;
23952;SDS011;12163;49.316;6.092;2022-10-31T06:34:07;23.90;;;8.32;;
23952;SDS011;12163;49.316;6.092;2022-10-31T06:36:34;18.65;;;7.45;;
23952;SDS011;12163;49.316;6.092;2022-10-31T06:39:00;22.40;;;7.38;;
23952;SDS011;12163;49.316;6.092;2022-10-31T06:41:27;24.33;;;8.32;;
23952;SDS011;12163;49.316;6.092;2022-10-31T06:43:53;20.67;;;7.53;;
23952;SDS011;12163;49.316;6.092;2022-10-31T06:46:20;24.48;;;8.40;;
23952;SDS011;12163;49.316;6.092;2022-10-31T06:48:46;23.15;;;8.30;;
23952;SDS011;12163;49.316;6.092;2022-10-31T06:51:13;20.95;;;8.18;;
23952;SDS011;12163;49.316;6.092;2022-10-31T06:53:40;21.13;;;7.05;;
23952;SDS011;12163;49.316;6.092;2022-10-31T06:56:06;15.02;;;7.32;;
23952;SDS011;12163;49.316;6.092;2022-10-31T06:58:33;17.40;;;7.30;;
23952;SDS011;12163;49.316;6.092;2022-10-31T07:01:00;17.80;;;6.78;;
23952;SDS011;12163;49.316;6.092;2022-10-31T07:03:26;19.17;;;7.57;;
23952;SDS011;12163;49.316;6.092;2022-10-31T07:05:56;18.60;;;8.02;;
23952;SDS011;12163;49.316;6.092;2022-10-31T07:08:23;20.00;;;7.90;;
23952;SDS011;12163;49.316;6.092;2022-10-31T07:10:51;18.92;;;8.60;;
23952;SDS011;12163;49.316;6.092;2022-10-31T07:13:19;20.63;;;8.23;;
23952;SDS011;12163;49.316;6.092;2022-10-31T07:15:58;22.58;;;9.10;;
23952;SDS011;12163;49.316;6.092;2022-10-31T07:18:26;23.70;;;9.30;;
23952;SDS011;12163;49.316;6.092;2022-10-31T07:20:53;18.50;;;9.18;;
23952;SDS011;12163;49.316;6.092;2022-10-31T07:23:20;20.85;;;8.93;;
23952;SDS011;12163;49.316;6.092;2022-10-31T07:25:47;17.60;;;9.13;;
23952;SDS011;12163;49.316;6.092;2022-10-31T07:28:14;22.45;;;8.68;;
23952;SDS011;12163;49.316;6.092;2022-10-31T07:30:40;22.73;;;9.30;;
23952;SDS011;12163;49.316;6.092;2022-10-31T07:33:07;20.50;;;8.93;;
23952;SDS011;12163;49.316;6.092;2022-10-31T07:35:34;21.52;;;8.88;;
23952;SDS011;12163;49.316;6.092;2022-10-31T07:38:11;26.73;;;8.93;;
23952;SDS011;12163;49.316;6.092;2022-10-31T07:40:39;20.73;;;9.27;;
23952;SDS011;12163;49.316;6.092;2022-10-31T07:43:07;26.25;;;9.07;;
23952;SDS011;12163;49.316;6.092;2022-10-31T07:45:39;22.52;;;8.60;;
23952;SDS011;12163;49.316;6.092;2022-10-31T07:48:06;20.33;;;7.47;;
23952;SDS011;12163;49.316;6.092;2022-10-31T07:50:33;20.40;;;7.47;;
23952;SDS011;12163;49.316;6.092;2022-10-31T07:53:06;20.63;;;6.82;;
23952;SDS011;12163;49.316;6.092;2022-10-31T07:55:34;14.45;;;6.07;;
23952;SDS011;12163;49.316;6.092;2022-10-31T07:58:03;19.75;;;7.07;;
23952;SDS011;12163;49.316;6.092;2022-10-31T08:00:32;13.13;;;7.05;;
23952;SDS011;12163;49.316;6.092;2022-10-31T08:03:01;16.52;;;7.28;;
23952;SDS011;12163;49.316;6.092;2022-10-31T08:07:59;18.73;;;7.65;;
23952;SDS011;12163;49.316;6.092;2022-10-31T08:10:27;23.27;;;7.72;;
23952;SDS011;12163;49.316;6.092;2022-10-31T08:13:00;26.08;;;8.30;;
23952;SDS011;12163;49.316;6.092;2022-10-31T08:15:32;16.90;;;7.68;;
23952;SDS011;12163;49.316;6.092;2022-10-31T08:18:00;19.60;;;8.27;;
23952;SDS011;12163;49.316;6.092;2022-10-31T08:20:28;16.52;;;7.70;;
23952;SDS011;12163;49.316;6.092;2022-10-31T08:22:59;31.48;;;8.00;;
23952;SDS011;12163;49.316;6.092;2022-10-31T08:28:00;18.65;;;7.82;;
23952;SDS011;12163;49.316;6.092;2022-10-31T08:30:29;22.63;;;8.25;;
23952;SDS011;12163;49.316;6.092;2022-10-31T08:32:58;25.30;;;7.70;;
23952;SDS011;12163;49.316;6.092;2022-10-31T08:35:29;20.00;;;8.48;;
23952;SDS011;12163;49.316;6.092;2022-10-31T08:37:58;30.55;;;8.75;;
23952;SDS011;12163;49.316;6.092;2022-10-31T08:40:26;18.90;;;7.90;;
23952;SDS011;12163;49.316;6.092;2022-10-31T08:42:55;23.63;;;9.27;;
23952;SDS011;12163;49.316;6.092;2022-10-31T08:45:24;18.80;;;7.60;;
23952;SDS011;12163;49.316;6.092;2022-10-31T08:47:51;20.52;;;9.05;;
23952;SDS011;12163;49.316;6.092;2022-10-31T08:50:18;26.70;;;9.07;;
23952;SDS011;12163;49.316;6.092;2022-10-31T08:52:45;28.83;;;9.80;;
23952;SDS011;12163;49.316;6.092;2022-10-31T08:55:30;28.20;;;9.80;;
23952;SDS011;12163;49.316;6.092;2022-10-31T08:57:58;23.77;;;9.65;;
23952;SDS011;12163;49.316;6.092;2022-10-31T09:00:25;28.95;;;9.52;;
23952;SDS011;12163;49.316;6.092;2022-10-31T09:02:56;25.80;;;9.30;;
23952;SDS011;12163;49.316;6.092;2022-10-31T09:05:24;30.95;;;10.30;;
23952;SDS011;12163;49.316;6.092;2022-10-31T09:07:51;25.70;;;10.60;;
23952;SDS011;12163;49.316;6.092;2022-10-31T09:10:21;32.20;;;9.93;;
23952;SDS011;12163;49.316;6.092;2022-10-31T09:12:48;26.27;;;8.88;;
23952;SDS011;12163;49.316;6.092;2022-10-31T09:15:24;22.75;;;9.00;;
23952;SDS011;12163;49.316;6.092;2022-10-31T09:17:52;27.05;;;9.80;;
23952;SDS011;12163;49.316;6.092;2022-10-31T09:20:19;23.30;;;9.05;;
23952;SDS011;12163;49.316;6.092;2022-10-31T09:22:46;24.92;;;10.45;;
23952;SDS011;12163;49.316;6.092;2022-10-31T09:25:13;22.85;;;9.23;;
23952;SDS011;12163;49.316;6.092;2022-10-31T09:27:39;24.33;;;9.35;;
23952;SDS011;12163;49.316;6.092;2022-10-31T09:30:06;27.98;;;9.80;;
23952;SDS011;12163;49.316;6.092;2022-10-31T09:32:33;25.83;;;9.30;;
23952;SDS011;12163;49.316;6.092;2022-10-31T09:34:59;21.73;;;8.82;;
23952;SDS011;12163;49.316;6.092;2022-10-31T09:37:26;28.33;;;9.63;;
23952;SDS011;12163;49.316;6.092;2022-10-31T09:39:53;36.20;;;9.77;;
23952;SDS011;12163;49.316;6.092;2022-10-31T09:53:24;28.60;;;9.68;;
23952;SDS011;12163;49.316;6.092;2022-10-31T09:55:59;32.38;;;8.40;;
23952;SDS011;12163;49.316;6.092;2022-10-31T09:58:27;27.02;;;9.45;;
23952;SDS011;12163;49.316;6.092;2022-10-31T10:01:00;27.80;;;8.30;;
23952;SDS011;12163;49.316;6.092;2022-10-31T10:03:36;18.60;;;7.75;;
23952;SDS011;12163;49.316;6.092;2022-10-31T10:06:14;25.73;;;8.32;;
23952;SDS011;12163;49.316;6.092;2022-10-31T10:08:45;25.25;;;8.15;;
23952;SDS011;12163;49.316;6.092;2022-10-31T10:33:07;21.60;;;8.38;;
23952;SDS011;12163;49.316;6.092;2022-10-31T10:38:37;21.63;;;7.95;;
23952;SDS011;12163;49.316;6.092;2022-10-31T10:41:21;23.48;;;8.95;;
23952;SDS011;12163;49.316;6.092;2022-10-31T10:43:49;23.27;;;8.05;;
23952;SDS011;12163;49.316;6.092;2022-10-31T10:49:12;25.48;;;7.68;;
23952;SDS011;12163;49.316;6.092;2022-10-31T11:00:17;21.80;;;8.10;;
23952;SDS011;12163;49.316;6.092;2022-10-31T11:02:48;23.88;;;8.93;;
23952;SDS011;12163;49.316;6.092;2022-10-31T11:07:56;27.65;;;9.00;;
23952;SDS011;12163;49.316;6.092;2022-10-31T11:10:22;17.17;;;7.43;;
23952;SDS011;12163;49.316;6.092;2022-10-31T11:16:01;23.33;;;8.63;;
23952;SDS011;12163;49.316;6.092;2022-10-31T11:18:30;23.65;;;8.55;;
23952;SDS011;12163;49.316;6.092;2022-10-31T11:21:00;28.05;;;8.48;;
23952;SDS011;12163;49.316;6.092;2022-10-31T11:23:31;18.33;;;8.50;;
23952;SDS011;12163;49.316;6.092;2022-10-31T11:26:03;28.13;;;8.50;;
23952;SDS011;12163;49.316;6.092;2022-10-31T11:28:31;20.30;;;8.77;;
23952;SDS011;12163;49.316;6.092;2022-10-31T11:31:05;20.77;;;8.20;;
23952;SDS011;12163;49.316;6.092;2022-10-31T11:33:47;22.88;;;7.95;;
23952;SDS011;12163;49.316;6.092;2022-10-31T11:36:16;26.38;;;8.63;;
23952;SDS011;12163;49.316;6.092;2022-10-31T11:38:50;27.20;;;8.05;;
23952;SDS011;12163;49.316;6.092;2022-10-31T11:41:19;27.70;;;9.00;;
23952;SDS011;12163;49.316;6.092;2022-10-31T11:43:53;27.27;;;9.80;;
23952;SDS011;12163;49.316;6.092;2022-10-31T11:46:32;22.58;;;10.02;;
23952;SDS011;12163;49.316;6.092;2022-10-31T11:49:03;20.35;;;9.35;;
23952;SDS011;12163;49.316;6.092;2022-10-31T11:51:32;25.42;;;10.30;;
23952;SDS011;12163;49.316;6.092;2022-10-31T11:54:01;24.27;;;9.23;;
23952;SDS011;12163;49.316;6.092;2022-10-31T11:56:39;20.52;;;9.32;;
23952;SDS011;12163;49.316;6.092;2022-10-31T11:59:15;25.58;;;8.93;;
23952;SDS011;12163;49.316;6.092;2022-10-31T12:01:48;22.38;;;8.43;;
23952;SDS011;12163;49.316;6.092;2022-10-31T12:04:16;19.70;;;8.43;;
23952;SDS011;12163;49.316;6.092;2022-10-31T12:06:44;22.15;;;8.45;;
23952;SDS011;12163;49.316;6.092;2022-10-31T12:09:20;27.13;;;8.60;;
23952;SDS011;12163;49.316;6.092;2022-10-31T12:17:05;25.88;;;7.65;;
23952;SDS011;12163;49.316;6.092;2022-10-31T12:19:50;24.83;;;7.55;;
23952;SDS011;12163;49.316;6.092;2022-10-31T12:25:16;16.88;;;7.40;;
23952;SDS011;12163;49.316;6.092;2022-10-31T12:31:09;19.95;;;8.02;;
23952;SDS011;12163;49.316;6.092;2022-10-31T12:36:43;22.52;;;7.60;;
23952;SDS011;12163;49.316;6.092;2022-10-31T12:50:50;17.77;;;7.53;;
23952;SDS011;12163;49.316;6.092;2022-10-31T12:59:43;18.58;;;6.15;;
23952;SDS011;12163;49.316;6.092;2022-10-31T13:07:57;13.13;;;5.85;;
23952;SDS011;12163;49.316;6.092;2022-10-31T13:10:15;13.98;;;6.22;;
23952;SDS011;12163;49.316;6.092;2022-10-31T13:12:46;14.85;;;6.28;;
23952;SDS011;12163;49.316;6.092;2022-10-31T13:17:52;16.25;;;6.40;;
23952;SDS011;12163;49.316;6.092;2022-10-31T13:20:28;14.40;;;5.90;;
23952;SDS011;12163;49.316;6.092;2022-10-31T13:26:20;22.33;;;6.22;;
23952;SDS011;12163;49.316;6.092;2022-10-31T13:28:56;21.30;;;6.10;;
23952;SDS011;12163;49.316;6.092;2022-10-31T13:31:31;20.58;;;6.15;;
23952;SDS011;12163;49.316;6.092;2022-10-31T13:34:04;20.00;;;5.93;;
23952;SDS011;12163;49.316;6.092;2022-10-31T13:36:48;23.75;;;6.30;;
23952;SDS011;12163;49.316;6.092;2022-10-31T13:42:40;19.98;;;5.65;;
23952;SDS011;12163;49.316;6.092;2022-10-31T13:45:15;17.88;;;5.85;;
23952;SDS011;12163;49.316;6.092;2022-10-31T13:50:41;13.98;;;5.95;;
23952;SDS011;12163;49.316;6.092;2022-10-31T13:55:50;16.98;;;6.53;;
23952;SDS011;12163;49.316;6.092;2022-10-31T13:58:31;19.67;;;6.03;;
23952;SDS011;12163;49.316;6.092;2022-10-31T14:01:19;16.58;;;6.70;;
23952;SDS011;12163;49.316;6.092;2022-10-31T14:07:06;21.10;;;6.20;;
23952;SDS011;12163;49.316;6.092;2022-10-31T14:12:46;16.33;;;5.55;;
23952;SDS011;12163;49.316;6.092;2022-10-31T14:15:18;14.75;;;6.18;;
23952;SDS011;12163;49.316;6.092;2022-10-31T14:20:39;22.45;;;6.03;;
23952;SDS011;12163;49.316;6.092;2022-10-31T14:23:31;22.70;;;5.85;;
23952;SDS011;12163;49.316;6.092;2022-10-31T14:28:54;15.40;;;4.95;;
23952;SDS011;12163;49.316;6.092;2022-10-31T14:31:30;24.42;;;6.03;;
23952;SDS011;12163;49.316;6.092;2022-10-31T14:39:33;17.98;;;4.93;;
23952;SDS011;12163;49.316;6.092;2022-10-31T14:44:46;17.73;;;5.18;;
23952;SDS011;12163;49.316;6.092;2022-10-31T14:50:39;13.05;;;4.60;;
23952;SDS011;12163;49.316;6.092;2022-10-31T14:52:57;14.25;;;4.97;;
23952;SDS011;12163;49.316;6.092;2022-10-31T14:55:28;17.67;;;6.15;;
23952;SDS011;12163;49.316;6.092;2022-10-31T14:57:56;17.23;;;5.85;;
23952;SDS011;12163;49.316;6.092;2022-10-31T15:00:26;20.63;;;5.65;;
23952;SDS011;12163;49.316;6.092;2022-10-31T15:05:56;19.30;;;6.80;;
23952;SDS011;12163;49.316;6.092;2022-10-31T15:11:22;15.43;;;6.05;;
23952;SDS011;12163;49.316;6.092;2022-10-31T15:13:51;17.25;;;5.25;;
23952;SDS011;12163;49.316;6.092;2022-10-31T15:16:35;15.23;;;5.88;;
23952;SDS011;12163;49.316;6.092;2022-10-31T15:19:15;12.05;;;5.57;;
23952;SDS011;12163;49.316;6.092;2022-10-31T15:21:46;26.55;;;6.32;;
23952;SDS011;12163;49.316;6.092;2022-10-31T15:24:14;24.88;;;6.97;;
23952;SDS011;12163;49.316;6.092;2022-10-31T15:26:48;20.55;;;6.03;;
23952;SDS011;12163;49.316;6.092;2022-10-31T15:29:18;20.00;;;5.97;;
23952;SDS011;12163;49.316;6.092;2022-10-31T15:31:52;24.88;;;6.38;;
23952;SDS011;12163;49.316;6.092;2022-10-31T15:34:40;13.77;;;5.32;;
23952;SDS011;12163;49.316;6.092;2022-10-31T15:37:12;21.77;;;6.22;;
23952;SDS011;12163;49.316;6.092;2022-10-31T15:39:43;14.65;;;5.45;;
23952;SDS011;12163;49.316;6.092;2022-10-31T15:42:25;16.35;;;6.22;;
23952;SDS011;12163;49.316;6.092;2022-10-31T15:45:04;20.67;;;5.80;;
23952;SDS011;12163;49.316;6.092;2022-10-31T15:47:45;18.88;;;5.15;;
23952;SDS011;12163;49.316;6.092;2022-10-31T15:53:04;20.25;;;5.40;;
23952;SDS011;12163;49.316;6.092;2022-10-31T15:55:45;19.98;;;5.65;;
23952;SDS011;12163;49.316;6.092;2022-10-31T15:58:15;17.95;;;5.82;;
23952;SDS011;12163;49.316;6.092;2022-10-31T16:00:43;16.45;;;5.45;;
23952;SDS011;12163;49.316;6.092;2022-10-31T16:05:43;24.63;;;5.43;;
23952;SDS011;12163;49.316;6.092;2022-10-31T16:13:33;15.75;;;5.38;;
23952;SDS011;12163;49.316;6.092;2022-10-31T16:16:09;16.90;;;5.47;;
23952;SDS011;12163;49.316;6.092;2022-10-31T16:18:59;18.33;;;7.18;;
23952;SDS011;12163;49.316;6.092;2022-10-31T16:21:31;24.13;;;5.82;;
23952;SDS011;12163;49.316;6.092;2022-10-31T16:24:03;22.58;;;5.28;;
23952;SDS011;12163;49.316;6.092;2022-10-31T16:26:40;18.60;;;5.28;;
23952;SDS011;12163;49.316;6.092;2022-10-31T16:29:22;14.82;;;4.72;;
23952;SDS011;12163;49.316;6.092;2022-10-31T16:31:51;18.45;;;5.47;;
23952;SDS011;12163;49.316;6.092;2022-10-31T16:34:22;17.98;;;5.15;;
23952;SDS011;12163;49.316;6.092;2022-10-31T16:36:52;11.25;;;4.68;;
23952;SDS011;12163;49.316;6.092;2022-10-31T16:39:19;13.40;;;4.93;;
23952;SDS011;12163;49.316;6.092;2022-10-31T16:41:46;21.35;;;5.32;;
23952;SDS011;12163;49.316;6.092;2022-10-31T16:44:17;17.15;;;5.18;;
23952;SDS011;12163;49.316;6.092;2022-10-31T16:46:47;20.15;;;5.75;;
23952;SDS011;12163;49.316;6.092;2022-10-31T16:49:14;16.88;;;5.75;;
23952;SDS011;12163;49.316;6.092;2022-10-31T16:51:41;20.35;;;6.05;;
23952;SDS011;12163;49.316;6.092;2022-10-31T16:54:09;16.02;;;4.97;;
23952;SDS011;12163;49.316;6.092;2022-10-31T16:56:37;13.77;;;5.53;;
23952;SDS011;12163;49.316;6.092;2022-10-31T16:59:06;15.23;;;6.00;;
23952;SDS011;12163;49.316;6.092;2022-10-31T17:01:41;16.50;;;5.88;;
23952;SDS011;12163;49.316;6.092;2022-10-31T17:04:14;17.50;;;5.38;;
23952;SDS011;12163;49.316;6.092;2022-10-31T17:06:41;17.90;;;5.95;;
23952;SDS011;12163;49.316;6.092;2022-10-31T17:09:08;21.60;;;6.55;;
23952;SDS011;12163;49.316;6.092;2022-10-31T17:11:35;23.17;;;8.70;;
23952;SDS011;12163;49.316;6.092;2022-10-31T17:14:02;21.70;;;8.60;;
23952;SDS011;12163;49.316;6.092;2022-10-31T17:16:30;18.92;;;8.48;;
23952;SDS011;12163;49.316;6.092;2022-10-31T17:18:57;20.63;;;9.75;;
23952;SDS011;12163;49.316;6.092;2022-10-31T17:21:23;18.98;;;7.30;;
23952;SDS011;12163;49.316;6.092;2022-10-31T17:23:53;22.35;;;7.78;;
23952;SDS011;12163;49.316;6.092;2022-10-31T17:26:19;18.42;;;7.00;;
23952;SDS011;12163;49.316;6.092;2022-10-31T17:28:46;25.88;;;7.25;;
23952;SDS011;12163;49.316;6.092;2022-10-31T17:31:19;18.52;;;7.00;;
23952;SDS011;12163;49.316;6.092;2022-10-31T17:33:48;17.10;;;6.85;;
23952;SDS011;12163;49.316;6.092;2022-10-31T17:36:15;17.90;;;6.50;;
23952;SDS011;12163;49.316;6.092;2022-10-31T17:38:42;19.00;;;6.78;;
23952;SDS011;12163;49.316;6.092;2022-10-31T17:41:08;16.83;;;6.78;;
23952;SDS011;12163;49.316;6.092;2022-10-31T17:43:36;22.15;;;6.75;;
23952;SDS011;12163;49.316;6.092;2022-10-31T17:46:03;18.08;;;6.03;;
23952;SDS011;12163;49.316;6.092;2022-10-31T17:48:31;23.23;;;6.75;;
23952;SDS011;12163;49.316;6.092;2022-10-31T17:51:01;17.52;;;6.88;;
23952;SDS011;12163;49.316;6.092;2022-10-31T17:53:29;18.67;;;6.90;;
23952;SDS011;12163;49.316;6.092;2022-10-31T17:56:14;12.85;;;6.00;;
23952;SDS011;12163;49.316;6.092;2022-10-31T17:58:41;19.05;;;6.88;;
23952;SDS011;12163;49.316;6.092;2022-10-31T18:01:15;20.85;;;6.72;;
23952;SDS011;12163;49.316;6.092;2022-10-31T18:03:43;13.15;;;6.50;;